Time;durP1;ratioP1;P1;durP2;ratioP2;P2;SDS_P1;SDS_P2;PMS_P1;PMS_P2;Temp;Humidity;BMP_temperature;BMP_pressure;BME280_temperature;BME280_humidity;BME280_pressure;Samples;Min_cycle;Max_cycle;Signal;HPM_P1;HPM_P2
2021/04/16 00:00:13;;;;;;;5.97;3.38;;;;;;;2.28;75.25;97254.13;4937389;28;20239;-72
2021/04/16 00:02:41;;;;;;;7.15;3.00;;;;;;;2.12;75.37;97242.47;4935537;28;20223;-73
2021/04/16 00:05:09;;;;;;;5.90;2.97;;;;;;;2.14;75.41;97245.84;4945557;28;20675;-74
2021/04/16 00:07:36;;;;;;;10.60;4.38;;;;;;;2.14;75.66;97243.28;4948785;28;20195;-73
2021/04/16 00:10:07;;;;;;;7.18;3.38;;;;;;;2.07;75.63;97241.72;4950571;28;20675;-74
2021/04/16 00:12:34;;;;;;;8.63;3.97;;;;;;;2.08;75.79;97233.16;4944615;28;20521;-74
2021/04/16 00:15:02;;;;;;;7.00;3.72;;;;;;;1.90;75.72;97228.34;4938677;28;20207;-73
2021/04/16 00:17:28;;;;;;;12.98;3.97;;;;;;;1.93;75.98;97233.41;4942398;28;20195;-74
2021/04/16 00:19:55;;;;;;;5.95;3.75;;;;;;;1.98;75.84;97233.34;4951783;28;20225;-71
2021/04/16 00:22:22;;;;;;;9.73;4.25;;;;;;;1.77;76.03;97213.22;4937438;28;20736;-73
2021/04/16 00:24:49;;;;;;;10.45;3.72;;;;;;;1.89;76.45;97226.66;4937907;28;20227;-73
2021/04/16 00:27:16;;;;;;;6.13;3.63;;;;;;;1.99;76.27;97223.03;4939260;28;20507;-72
2021/04/16 00:29:44;;;;;;;7.28;4.13;;;;;;;2.02;76.24;97220.44;4939524;28;20696;-72
2021/04/16 00:32:11;;;;;;;9.07;3.67;;;;;;;2.06;76.14;97219.47;4942072;28;20568;-73
2021/04/16 00:34:38;;;;;;;10.23;3.67;;;;;;;2.05;75.93;97217.78;4943332;28;20241;-74
2021/04/16 00:37:05;;;;;;;7.05;3.75;;;;;;;2.09;75.81;97218.59;4936878;28;20195;-73
2021/04/16 00:39:32;;;;;;;7.05;3.50;;;;;;;1.97;76.19;97205.97;4936243;28;20226;-72
2021/04/16 00:41:59;;;;;;;6.40;3.55;;;;;;;1.85;76.27;97204.47;4942733;28;20234;-72
2021/04/16 00:44:26;;;;;;;7.53;2.95;;;;;;;1.88;76.52;97207.00;4940868;28;20600;-72
2021/04/16 00:46:58;;;;;;;4.68;3.03;;;;;;;1.82;76.54;97203.69;4921460;28;20631;-72
2021/04/16 00:49:29;;;;;;;8.15;3.25;;;;;;;1.82;76.63;97204.56;4936872;28;20231;-73
2021/04/16 00:51:58;;;;;;;7.63;3.15;;;;;;;1.82;76.62;97207.13;4945738;28;20616;-73
2021/04/16 00:54:28;;;;;;;9.45;3.05;;;;;;;1.78;76.63;97197.78;4932453;28;20223;-72
2021/04/16 00:56:55;;;;;;;6.78;3.05;;;;;;;1.79;76.91;97199.50;4944538;28;20596;-73
2021/04/16 00:59:27;;;;;;;4.88;3.40;;;;;;;1.77;77.02;97196.09;4947539;28;20301;-72
2021/04/16 01:01:56;;;;;;;4.75;3.15;;;;;;;1.83;76.65;97195.97;4941916;28;20286;-72
2021/04/16 01:04:23;;;;;;;5.30;3.30;;;;;;;1.82;76.63;97191.72;4935613;28;20274;-72
2021/04/16 01:06:51;;;;;;;5.47;3.13;;;;;;;1.82;76.61;97199.41;4944060;28;20184;-72
2021/04/16 01:09:19;;;;;;;5.10;3.00;;;;;;;1.80;76.88;97198.63;4939666;28;21118;-72
2021/04/16 01:11:46;;;;;;;11.23;3.35;;;;;;;1.81;76.45;97191.75;4940960;28;20250;-72
2021/04/16 01:14:15;;;;;;;7.35;3.80;;;;;;;1.72;76.61;97177.38;4937723;28;20665;-72
2021/04/16 01:16:42;;;;;;;4.75;2.80;;;;;;;1.83;76.34;97190.84;4950516;28;20519;-72
2021/04/16 01:19:18;;;;;;;6.07;3.45;;;;;;;1.78;76.54;97191.81;4932288;28;20219;-72
2021/04/16 01:21:54;;;;;;;6.07;2.92;;;;;;;1.71;76.58;97190.22;4922088;28;20811;-71
2021/04/16 01:24:25;;;;;;;5.07;3.05;;;;;;;1.61;76.34;97170.75;4947704;28;20262;-72
2021/04/16 01:26:54;;;;;;;5.15;2.80;;;;;;;1.65;76.55;97180.06;4949132;28;20266;-73
2021/04/16 01:29:22;;;;;;;6.43;2.80;;;;;;;1.68;76.30;97191.13;4943136;28;20226;-72
2021/04/16 01:31:49;;;;;;;4.10;2.45;;;;;;;1.58;76.57;97174.22;4944333;28;20199;-72
2021/04/16 01:34:18;;;;;;;4.22;2.30;;;;;;;1.69;76.46;97192.00;4939023;28;20644;-73
2021/04/16 01:36:46;;;;;;;6.82;2.90;;;;;;;1.63;76.66;97182.66;4943277;28;20623;-73
2021/04/16 01:39:14;;;;;;;8.55;3.10;;;;;;;1.63;76.61;97184.41;4938252;28;20809;-71
2021/04/16 01:41:42;;;;;;;12.85;2.88;;;;;;;1.58;76.38;97179.34;4942734;28;20683;-73
2021/04/16 01:44:13;;;;;;;6.38;2.75;;;;;;;1.60;76.42;97185.28;4941465;28;20678;-71
2021/04/16 01:46:49;;;;;;;4.78;3.08;;;;;;;1.61;76.60;97183.59;4940200;28;20580;-71
2021/04/16 01:49:18;;;;;;;14.02;3.17;;;;;;;1.50;76.59;97188.91;4941619;28;20900;-72
2021/04/16 01:51:46;;;;;;;4.93;2.95;;;;;;;1.44;76.86;97178.75;4921700;28;20606;-72
2021/04/16 01:54:16;;;;;;;6.45;2.60;;;;;;;1.41;77.38;97181.34;4942479;28;20548;-71
2021/04/16 01:56:46;;;;;;;5.43;2.35;;;;;;;1.42;77.02;97183.03;4945339;28;20196;-72
2021/04/16 01:59:15;;;;;;;5.45;3.05;;;;;;;1.33;77.45;97172.13;4938486;28;20238;-72
2021/04/16 02:01:43;;;;;;;5.32;2.63;;;;;;;1.28;77.43;97177.31;4945573;28;20596;-72
2021/04/16 02:04:14;;;;;;;6.60;3.03;;;;;;;1.23;77.68;97175.69;4939915;28;20218;-71
2021/04/16 02:06:42;;;;;;;4.75;2.33;;;;;;;1.20;77.64;97171.44;4940909;28;20308;-72
2021/04/16 02:09:12;;;;;;;5.45;2.30;;;;;;;1.14;78.13;97176.69;4939251;28;20608;-72
2021/04/16 02:11:42;;;;;;;7.60;3.70;;;;;;;1.13;77.94;97161.34;4946207;28;20183;-72
2021/04/16 02:14:11;;;;;;;8.02;3.53;;;;;;;1.13;78.08;97162.19;4949014;28;20602;-74
2021/04/16 02:16:38;;;;;;;4.70;2.72;;;;;;;1.15;77.93;97168.13;4940000;28;20685;-76
2021/04/16 02:19:05;;;;;;;4.25;2.42;;;;;;;1.08;78.35;97171.66;4946139;28;20223;-73
2021/04/16 02:21:33;;;;;;;6.22;2.20;;;;;;;1.11;78.36;97169.03;4951551;28;20636;-72
2021/04/16 02:24:01;;;;;;;7.13;3.13;;;;;;;1.07;78.34;97164.84;4940438;28;20702;-73
2021/04/16 02:26:28;;;;;;;7.47;3.08;;;;;;;1.10;78.42;97164.78;4942811;28;20199;-71
2021/04/16 02:28:55;;;;;;;6.97;3.00;;;;;;;1.10;78.25;97164.78;4939889;28;20594;-73
2021/04/16 02:31:23;;;;;;;8.00;3.72;;;;;;;1.09;78.49;97168.22;4948190;28;20599;-74
2021/04/16 02:33:50;;;;;;;4.38;2.72;;;;;;;1.09;78.45;97172.50;4953973;28;20215;-73
2021/04/16 02:36:17;;;;;;;11.70;3.47;;;;;;;1.10;78.21;97169.91;4942304;28;20723;-73
2021/04/16 02:38:44;;;;;;;5.80;2.63;;;;;;;1.12;77.73;97168.16;4943102;28;20231;-72
2021/04/16 02:41:11;;;;;;;5.13;2.50;;;;;;;1.17;78.09;97166.38;4945466;28;20503;-72
2021/04/16 02:43:38;;;;;;;5.40;2.70;;;;;;;1.10;77.97;97159.66;4943388;28;20226;-71
2021/04/16 02:46:05;;;;;;;7.13;2.88;;;;;;;1.04;78.45;97164.88;4942653;28;20528;-71
2021/04/16 02:48:33;;;;;;;7.40;3.20;;;;;;;1.02;78.15;97161.50;4943381;28;20905;-71
2021/04/16 02:50:59;;;;;;;4.68;2.92;;;;;;;1.04;78.43;97158.94;4943672;28;20619;-71
2021/04/16 02:53:26;;;;;;;8.15;3.42;;;;;;;0.98;78.81;97162.41;4936347;28;20686;-71
2021/04/16 02:55:54;;;;;;;7.57;3.38;;;;;;;0.95;78.57;97147.09;4925367;28;20642;-71
2021/04/16 02:58:21;;;;;;;3.22;2.50;;;;;;;0.97;78.97;97162.47;4948210;28;20219;-71
2021/04/16 03:00:48;;;;;;;5.65;2.78;;;;;;;0.97;78.79;97153.03;4944762;28;20223;-71
2021/04/16 03:03:15;;;;;;;5.93;3.50;;;;;;;1.02;78.72;97161.50;4942974;28;20283;-70
2021/04/16 03:05:43;;;;;;;3.70;2.50;;;;;;;1.01;78.79;97157.25;4941694;28;20602;-71
2021/04/16 03:08:10;;;;;;;5.60;3.28;;;;;;;0.84;78.94;97136.19;4936977;28;20198;-70
2021/04/16 03:10:38;;;;;;;5.18;3.03;;;;;;;0.96;78.89;97151.34;4948464;28;20276;-72
2021/04/16 03:13:05;;;;;;;5.65;2.67;;;;;;;1.01;78.79;97152.13;4952961;28;20176;-71
2021/04/16 03:15:34;;;;;;;4.78;2.85;;;;;;;0.98;78.48;97154.72;4938857;28;20195;-71
2021/04/16 03:18:02;;;;;;;5.47;3.22;;;;;;;1.03;78.48;97147.81;4940430;28;20195;-70
2021/04/16 03:20:29;;;;;;;2.60;2.35;;;;;;;0.99;78.35;97146.19;4938681;28;20262;-74
2021/04/16 03:22:57;;;;;;;4.40;3.00;;;;;;;0.92;78.07;97143.75;4943671;28;20208;-71
2021/04/16 03:25:24;;;;;;;6.22;3.55;;;;;;;0.87;78.53;97145.53;4943067;28;20236;-71
2021/04/16 03:27:51;;;;;;;5.00;3.28;;;;;;;0.82;78.82;97145.59;4944040;28;20720;-70
2021/04/16 03:30:22;;;;;;;4.82;2.95;;;;;;;0.78;78.56;97151.66;4936571;28;20900;-70
2021/04/16 03:32:48;;;;;;;5.72;3.10;;;;;;;0.69;79.10;97151.81;4938761;28;20187;-70
2021/04/16 03:35:16;;;;;;;3.45;1.90;;;;;;;0.65;78.91;97152.69;4941838;28;20688;-71
2021/04/16 03:37:43;;;;;;;4.65;2.83;;;;;;;0.53;79.47;97150.31;4941868;28;20191;-71
2021/04/16 03:40:13;;;;;;;10.07;3.40;;;;;;;0.56;79.73;97150.28;4944848;28;20262;-72
2021/04/16 03:42:40;;;;;;;5.55;2.70;;;;;;;0.56;79.36;97140.03;4941332;28;20203;-71
2021/04/16 03:45:09;;;;;;;5.68;2.70;;;;;;;0.56;79.41;97140.03;4941632;28;20270;-71
2021/04/16 03:47:36;;;;;;;11.98;3.10;;;;;;;0.53;79.58;97147.75;4944434;28;20183;-72
2021/04/16 03:50:05;;;;;;;7.35;2.70;;;;;;;0.52;79.30;97146.06;4938292;28;20604;-70
2021/04/16 03:52:32;;;;;;;5.38;3.03;;;;;;;0.49;79.48;97146.13;4943796;28;20765;-73
2021/04/16 03:54:59;;;;;;;7.43;2.90;;;;;;;0.53;79.22;97147.75;4948215;28;20543;-74
2021/04/16 03:57:27;;;;;;;8.80;3.22;;;;;;;0.47;79.20;97145.25;4946389;28;20261;-72
2021/04/16 03:59:55;;;;;;;8.82;4.38;;;;;;;0.48;79.27;97151.25;4944845;28;20239;-72
2021/04/16 04:02:22;;;;;;;10.73;4.68;;;;;;;0.52;79.19;97148.63;4941566;28;20199;-72
2021/04/16 04:04:49;;;;;;;7.78;4.10;;;;;;;0.53;79.37;97150.31;4938699;28;20238;-73
2021/04/16 04:07:16;;;;;;;12.40;5.18;;;;;;;0.54;79.04;97146.03;4939897;28;20215;-73
2021/04/16 04:09:43;;;;;;;10.35;5.20;;;;;;;0.54;79.05;97156.28;4949489;28;20547;-73
2021/04/16 04:12:11;;;;;;;11.68;6.15;;;;;;;0.52;78.93;97147.78;4927058;28;20198;-71
2021/04/16 04:14:39;;;;;;;11.85;6.03;;;;;;;0.42;79.28;97146.19;4945862;28;20925;-72
2021/04/16 04:17:08;;;;;;;20.85;7.38;;;;;;;0.44;79.40;97155.56;4947852;28;20615;-73
2021/04/16 04:19:36;;;;;;;13.90;7.00;;;;;;;0.42;79.44;97157.31;4940972;28;20836;-72
2021/04/16 04:22:05;;;;;;;14.93;7.20;;;;;;;0.34;79.43;97159.13;4940150;28;20292;-72
2021/04/16 04:24:32;;;;;;;15.30;7.15;;;;;;;0.30;79.60;97160.00;4946478;28;20616;-75
2021/04/16 04:26:58;;;;;;;10.45;5.88;;;;;;;0.30;79.57;97162.56;4937304;28;20586;-72
2021/04/16 04:29:26;;;;;;;11.45;6.13;;;;;;;0.33;79.75;97160.00;4942788;28;20758;-71
2021/04/16 04:31:54;;;;;;;11.77;5.55;;;;;;;0.32;79.62;97158.28;4938533;28;20678;-72
2021/04/16 04:34:24;;;;;;;17.10;6.90;;;;;;;0.36;79.04;97167.63;4941907;28;20477;-71
2021/04/16 04:36:54;;;;;;;14.68;5.95;;;;;;;0.30;79.82;97162.56;4946313;28;20613;-70
2021/04/16 04:39:22;;;;;;;13.07;5.55;;;;;;;0.32;79.91;97163.41;4931867;28;20227;-71
2021/04/16 04:41:49;;;;;;;9.27;5.47;;;;;;;0.28;80.17;97159.19;4942219;28;20254;-72
2021/04/16 04:44:16;;;;;;;9.98;4.90;;;;;;;0.30;80.24;97162.56;4936663;28;20685;-73
2021/04/16 04:46:44;;;;;;;11.55;4.80;;;;;;;0.29;80.47;97165.16;4940779;28;20210;-72
2021/04/16 04:49:12;;;;;;;11.15;5.25;;;;;;;0.31;80.61;97163.44;4953493;28;20223;-72
2021/04/16 04:51:41;;;;;;;10.80;4.85;;;;;;;0.33;80.21;97165.13;4954926;28;20258;-71
2021/04/16 04:54:09;;;;;;;11.73;5.85;;;;;;;0.34;80.00;97161.69;4944261;28;20238;-73
2021/04/16 04:56:37;;;;;;;11.30;4.72;;;;;;;0.38;80.13;97171.00;4952312;28;20192;-73
2021/04/16 04:59:05;;;;;;;11.20;4.28;;;;;;;0.36;79.78;97165.06;4953875;28;20231;-72
2021/04/16 05:01:33;;;;;;;7.82;3.33;;;;;;;0.34;79.91;97169.38;4949831;28;20690;-72
2021/04/16 05:04:03;;;;;;;9.00;4.25;;;;;;;0.42;79.93;97164.97;4944501;28;20222;-72
2021/04/16 05:06:31;;;;;;;12.43;4.25;;;;;;;0.55;80.00;97169.06;4945041;28;20375;-73
2021/04/16 05:08:58;;;;;;;7.38;4.53;;;;;;;0.56;80.15;97170.75;4952316;28;20431;-71
2021/04/16 05:11:25;;;;;;;13.65;4.90;;;;;;;0.41;80.16;97149.63;4951918;28;20230;-72
2021/04/16 05:13:52;;;;;;;7.30;3.75;;;;;;;0.58;79.75;97165.59;4942595;28;20775;-72
2021/04/16 05:16:19;;;;;;;8.43;4.47;;;;;;;0.63;79.69;97169.81;4942348;28;20223;-72
2021/04/16 05:18:49;;;;;;;12.32;6.00;;;;;;;0.59;79.17;97170.69;4945429;28;20666;-72
2021/04/16 05:21:19;;;;;;;11.35;4.95;;;;;;;0.63;79.06;97177.50;4948310;28;20195;-73
2021/04/16 05:23:47;;;;;;;7.95;4.28;;;;;;;0.65;79.33;97180.00;4946056;28;20550;-72
2021/04/16 05:26:16;;;;;;;5.78;3.50;;;;;;;0.70;79.44;97171.41;4943398;28;20258;-72
2021/04/16 05:28:43;;;;;;;7.07;4.72;;;;;;;0.82;79.51;97176.34;4956433;28;20836;-75
2021/04/16 05:31:10;;;;;;;8.60;3.90;;;;;;;0.84;79.20;97166.94;4954540;28;20254;-71
2021/04/16 05:33:37;;;;;;;10.38;5.63;;;;;;;1.04;78.59;97172.56;4943732;28;20219;-72
2021/04/16 05:36:05;;;;;;;24.00;10.05;;;;;;;1.05;77.47;97168.31;4953632;28;20665;-72
2021/04/16 05:38:32;;;;;;;20.13;9.50;;;;;;;0.91;77.70;97168.53;4939588;28;20534;-72
2021/04/16 05:41:00;;;;;;;13.65;6.70;;;;;;;0.80;77.82;97172.97;4943368;28;20226;-72
2021/04/16 05:43:28;;;;;;;14.95;7.60;;;;;;;0.87;78.03;97169.44;4933875;28;20219;-72
2021/04/16 05:45:57;;;;;;;17.17;6.45;;;;;;;1.13;78.16;97169.03;4939634;28;20510;-73
2021/04/16 05:48:24;;;;;;;11.65;4.32;;;;;;;1.24;77.72;97172.25;4943913;28;20226;-72
2021/04/16 05:50:51;;;;;;;15.27;5.38;;;;;;;1.43;77.54;97171.94;4945817;28;20257;-72
2021/04/16 05:53:18;;;;;;;9.63;4.78;;;;;;;1.60;77.76;97175.03;4933639;28;20619;-70
2021/04/16 05:55:45;;;;;;;6.53;4.15;;;;;;;1.75;77.60;97174.75;4946083;28;20638;-71
2021/04/16 05:58:13;;;;;;;6.40;4.32;;;;;;;1.89;77.89;97175.34;4947738;28;20195;-75
2021/04/16 06:00:41;;;;;;;9.13;4.55;;;;;;;2.08;77.93;97181.81;4945482;28;20290;-74
2021/04/16 06:03:09;;;;;;;11.20;4.80;;;;;;;2.08;77.45;97176.69;4939608;28;20195;-73
2021/04/16 06:05:37;;;;;;;13.65;6.00;;;;;;;2.06;77.12;97173.28;4939636;28;20192;-73
2021/04/16 06:08:04;;;;;;;12.88;8.43;;;;;;;2.10;76.51;97185.19;4943558;28;20606;-73
2021/04/16 06:10:31;;;;;;;11.02;7.45;;;;;;;2.16;76.13;97187.66;4939016;28;20191;-72
2021/04/16 06:12:58;;;;;;;15.70;9.32;;;;;;;2.21;75.92;97188.38;4938892;28;20663;-72
2021/04/16 06:15:28;;;;;;;8.45;5.82;;;;;;;2.04;76.13;97189.59;4942254;28;20717;-71
2021/04/16 06:17:56;;;;;;;10.65;6.65;;;;;;;1.97;76.74;97188.88;4946393;28;20618;-71
2021/04/16 06:20:25;;;;;;;11.45;7.03;;;;;;;2.02;78.02;97170.81;4943694;28;20671;-72
2021/04/16 06:22:55;;;;;;;12.98;4.18;;;;;;;2.27;80.83;97187.44;4944647;28;20202;-73
2021/04/16 06:25:24;;;;;;;94.80;37.88;;;;;;;2.45;81.59;97177.63;4937400;28;20226;-74
2021/04/16 06:27:51;;;;;;;40.22;18.85;;;;;;;2.57;82.09;97182.47;4950658;28;20666;-73
2021/04/16 06:30:20;;;;;;;11.18;4.45;;;;;;;2.68;82.85;97188.25;4943933;28;20231;-73
2021/04/16 06:32:58;;;;;;;8.43;4.13;;;;;;;2.84;83.77;97181.88;4951860;28;20226;-71
2021/04/16 06:35:25;;;;;;;7.00;3.65;;;;;;;3.09;82.64;97188.13;4938496;28;20302;-71
2021/04/16 06:37:52;;;;;;;12.23;4.65;;;;;;;3.26;82.62;97183.47;4945321;28;20601;-71
2021/04/16 06:40:19;;;;;;;8.27;4.97;;;;;;;3.30;82.51;97169.63;4945326;28;20216;-71
2021/04/16 06:42:47;;;;;;;8.70;4.95;;;;;;;3.37;82.37;97176.31;4949453;28;20337;-70
2021/04/16 06:45:17;;;;;;;9.40;5.40;;;;;;;3.46;82.25;97170.09;4939930;28;20294;-70
2021/04/16 06:47:54;;;;;;;8.93;4.70;;;;;;;3.59;81.97;97174.88;4944671;28;20190;-72
2021/04/16 06:50:24;;;;;;;6.45;4.20;;;;;;;3.69;82.15;97170.34;4945309;28;20218;-71
2021/04/16 06:52:59;;;;;;;8.05;4.22;;;;;;;3.89;81.98;97174.09;4938261;28;20187;-72
2021/04/16 06:55:30;;;;;;;6.82;3.70;;;;;;;4.06;80.78;97167.59;4907807;28;20664;-74
2021/04/16 06:58:02;;;;;;;14.52;4.05;;;;;;;4.23;80.02;97154.25;4945718;28;20200;-72
2021/04/16 07:00:39;;;;;;;6.63;4.03;;;;;;;4.30;79.60;97176.38;4939744;28;20612;-73
2021/04/16 07:03:13;;;;;;;5.00;3.38;;;;;;;4.30;79.43;97181.53;4940902;28;20694;-71
2021/04/16 07:05:45;;;;;;;7.63;4.30;;;;;;;4.33;79.71;97181.44;4949732;28;20202;-70
2021/04/16 07:08:33;;;;;;;8.30;4.75;;;;;;;4.38;79.00;97180.44;4943535;28;20656;-71
2021/04/16 07:11:03;;;;;;;8.50;3.85;;;;;;;4.38;78.74;97172.72;4942378;28;20199;-72
2021/04/16 07:13:34;;;;;;;7.22;3.70;;;;;;;4.45;78.93;97188.81;4941717;28;20222;-72
2021/04/16 07:16:02;;;;;;;4.43;3.33;;;;;;;4.50;78.11;97184.38;4943327;28;20195;-72
2021/04/16 07:18:35;;;;;;;19.63;4.55;;;;;;;4.42;78.15;97181.16;4944043;28;20314;-73
2021/04/16 07:21:03;;;;;;;5.45;3.80;;;;;;;4.61;78.64;97184.91;4937834;28;20206;-72
2021/04/16 07:23:31;;;;;;;8.85;3.50;;;;;;;4.73;76.58;97187.13;4946298;28;20321;-72
2021/04/16 07:26:05;;;;;;;6.00;3.22;;;;;;;4.54;77.08;97193.69;4943697;28;20898;-72
2021/04/16 07:28:45;;;;;;;46.80;22.25;;;;;;;4.65;77.36;97189.09;4934937;28;20301;-70
2021/04/16 07:31:42;;;;;;;40.03;19.05;;;;;;;4.87;76.83;97195.31;4938482;28;20187;-72
2021/04/16 07:34:33;;;;;;;5.65;3.10;;;;;;;4.77;75.22;97193.88;4950976;28;20230;-71
2021/04/16 07:37:16;;;;;;;5.10;3.15;;;;;;;4.93;75.50;97192.50;4937996;28;20198;-72
2021/04/16 07:39:51;;;;;;;4.07;3.10;;;;;;;5.21;75.32;97185.63;4942250;28;20545;-72
2021/04/16 07:42:35;;;;;;;4.55;2.78;;;;;;;5.42;74.25;97184.94;4937306;28;20584;-71
2021/04/16 07:45:10;;;;;;;5.97;3.30;;;;;;;6.18;72.77;97178.91;4941885;28;20281;-72
2021/04/16 07:47:38;;;;;;;6.82;3.28;;;;;;;6.07;72.32;97168.94;4945188;28;20194;-72
2021/04/16 07:50:10;;;;;;;7.25;3.42;;;;;;;7.01;70.42;97174.03;4950384;28;20313;-71
2021/04/16 07:52:40;;;;;;;7.68;3.85;;;;;;;7.27;68.68;97182.44;4944319;28;20278;-71
2021/04/16 07:55:21;;;;;;;7.97;3.05;;;;;;;7.53;67.33;97173.63;4954029;28;20222;-73
2021/04/16 07:58:07;;;;;;;5.50;3.50;;;;;;;7.20;68.03;97181.00;4950490;28;20613;-72
2021/04/16 08:00:38;;;;;;;6.80;3.20;;;;;;;6.98;68.60;97184.47;4943960;28;20239;-72
2021/04/16 08:03:13;;;;;;;6.15;3.63;;;;;;;7.10;67.72;97176.25;4936683;28;20707;-73
2021/04/16 08:05:46;;;;;;;4.13;2.80;;;;;;;6.99;68.63;97183.59;4944204;28;20191;-74
2021/04/16 08:08:24;;;;;;;4.30;2.80;;;;;;;7.04;68.26;97174.75;4936890;28;20195;-72
2021/04/16 08:10:54;;;;;;;4.75;3.45;;;;;;;7.39;68.10;97169.03;4949822;28;20183;-72
2021/04/16 08:13:25;;;;;;;5.95;3.15;;;;;;;7.75;67.13;97182.22;4939109;28;20540;-71
2021/04/16 08:15:54;;;;;;;12.50;6.78;;;;;;;7.49;67.09;97178.09;4942554;28;20289;-72
2021/04/16 08:18:26;;;;;;;9.00;5.32;;;;;;;7.89;66.71;97178.16;4940235;28;20685;-72
2021/04/16 08:21:01;;;;;;;8.10;3.25;;;;;;;8.31;64.00;97186.69;4947416;28;20250;-72
2021/04/16 08:23:35;;;;;;;13.40;3.28;;;;;;;8.61;63.38;97186.19;4936391;28;20227;-74
2021/04/16 08:26:09;;;;;;;11.63;3.57;;;;;;;8.55;63.39;97183.88;4938423;28;20194;-71
2021/04/16 08:28:48;;;;;;;15.33;3.80;;;;;;;8.14;64.00;97191.75;4938954;28;20574;-73
2021/04/16 08:31:20;;;;;;;11.00;3.47;;;;;;;8.08;63.56;97189.41;4937595;28;20442;-72
2021/04/16 08:33:52;;;;;;;5.15;3.08;;;;;;;8.13;63.98;97183.09;4944039;28;21028;-75
2021/04/16 08:36:23;;;;;;;4.23;2.70;;;;;;;8.32;64.38;97192.75;4943806;28;20491;-72
2021/04/16 08:38:56;;;;;;;29.83;15.03;;;;;;;8.51;64.38;97190.13;4948738;28;21213;-71
2021/04/16 08:41:25;;;;;;;54.63;26.40;;;;;;;8.18;64.38;97181.16;4936525;28;20426;-72
2021/04/16 08:43:55;;;;;;;11.20;4.83;;;;;;;8.26;64.67;97193.84;4945203;28;20481;-71
2021/04/16 08:46:30;;;;;;;14.57;6.17;;;;;;;7.99;64.56;97182.03;4935327;28;20456;-71
2021/04/16 08:49:04;;;;;;;7.93;4.60;;;;;;;7.82;65.90;97192.28;4942491;28;20521;-74
2021/04/16 08:51:35;;;;;;;13.73;5.43;;;;;;;7.56;65.98;97191.63;4934992;28;20445;-71
2021/04/16 08:54:06;;;;;;;7.07;3.75;;;;;;;7.85;65.66;97188.69;4934828;28;21118;-72
2021/04/16 08:56:49;;;;;;;16.02;6.80;;;;;;;7.69;63.44;97182.47;4940603;28;20203;-72
2021/04/16 08:59:17;;;;;;;5.07;3.35;;;;;;;8.04;66.72;97184.41;4938390;28;20863;-76
2021/04/16 09:01:54;;;;;;;7.30;3.20;;;;;;;8.66;63.29;97173.00;4949427;28;20659;-75
2021/04/16 09:04:47;;;;;;;5.53;3.43;;;;;;;8.45;63.03;97185.19;4947251;28;20493;-74
2021/04/16 09:07:38;;;;;;;9.23;3.40;;;;;;;9.60;60.30;97186.63;4946281;28;20453;-74
2021/04/16 09:10:24;;;;;;;5.43;3.30;;;;;;;9.93;58.99;97168.53;4945295;28;20454;-74
2021/04/16 09:13:05;;;;;;;5.43;3.03;;;;;;;10.01;58.91;97189.78;4935539;28;20451;-75
2021/04/16 09:15:45;;;;;;;2.97;2.70;;;;;;;10.19;58.72;97168.09;4945542;28;20441;-75
2021/04/16 09:18:33;;;;;;;25.50;3.97;;;;;;;10.18;58.17;97182.84;4944014;28;20446;-75
2021/04/16 09:21:30;;;;;;;22.17;3.60;;;;;;;10.33;57.88;97183.84;4942101;28;20834;-74
2021/04/16 09:24:10;;;;;;;10.40;3.70;;;;;;;10.40;57.87;97174.81;4941435;28;20485;-75
2021/04/16 09:26:56;;;;;;;65.50;29.13;;;;;;;10.48;57.38;97178.69;4945229;28;20761;-74
2021/04/16 09:29:48;;;;;;;9.80;5.60;;;;;;;10.14;58.09;97178.75;4946143;28;20462;-76
2021/04/16 09:32:49;;;;;;;14.17;2.60;;;;;;;9.59;58.89;97177.16;4946991;28;20912;-75
2021/04/16 09:35:46;;;;;;;4.20;3.00;;;;;;;9.55;58.30;97178.25;4900722;28;21043;-75
2021/04/16 09:38:58;;;;;;;5.30;2.80;;;;;;;9.59;58.29;97174.56;4944263;28;20450;-77
2021/04/16 09:41:35;;;;;;;4.63;2.80;;;;;;;9.85;57.21;97176.75;4935619;28;20454;-76
2021/04/16 09:44:37;;;;;;;4.77;3.13;;;;;;;9.92;57.61;97188.53;4944707;28;20501;-76
2021/04/16 09:47:05;;;;;;;4.47;3.03;;;;;;;9.94;57.59;97181.47;4948878;28;20937;-74
2021/04/16 09:49:38;;;;;;;4.37;3.00;;;;;;;9.90;57.25;97177.38;4953067;28;20466;-74
2021/04/16 09:52:46;;;;;;;3.50;2.30;;;;;;;9.63;56.49;97186.50;4921432;28;20481;-75
2021/04/16 09:55:52;;;;;;;7.70;3.93;;;;;;;9.28;56.42;97189.13;4948197;28;20949;-75
2021/04/16 09:59:08;;;;;;;5.27;3.10;;;;;;;8.33;57.58;97188.31;4945610;28;20528;-75
2021/04/16 10:02:20;;;;;;;15.30;3.37;;;;;;;8.47;59.50;97190.28;4936469;28;20481;-72
2021/04/16 10:04:53;;;;;;;5.80;2.97;;;;;;;8.65;59.20;97187.72;4937257;28;20467;-72
2021/04/16 10:07:22;;;;;;;4.90;2.87;;;;;;;8.56;60.49;97177.75;4908526;29;20947;-74
2021/04/16 10:09:49;;;;;;;8.30;2.80;;;;;;;8.60;60.92;97187.09;4919523;29;20783;-72
2021/04/16 10:12:24;;;;;;;4.37;3.47;;;;;;;8.70;60.50;97177.97;4921371;29;20472;-73
2021/04/16 10:14:51;;;;;;;6.30;3.00;;;;;;;9.19;59.98;97174.81;4919805;29;21015;-73
2021/04/16 10:17:20;;;;;;;7.50;3.13;;;;;;;9.45;58.84;97174.41;4915731;29;20439;-72
2021/04/16 10:19:50;;;;;;;4.73;2.67;;;;;;;9.84;58.18;97169.88;4903809;29;20509;-73
2021/04/16 10:22:24;;;;;;;4.13;2.77;;;;;;;10.57;57.03;97164.34;4916670;29;20451;-73
2021/04/16 12:39:17;;;;;;;4.83;2.73;;;;;;;9.26;57.60;97128.59;4923461;28;20469;-74
2021/04/16 12:41:50;;;;;;;6.20;3.37;;;;;;;9.19;57.36;97122.88;4926485;29;20447;-73
2021/04/16 12:44:25;;;;;;;7.60;3.10;;;;;;;9.07;57.20;97122.63;4903464;29;20480;-73
2021/04/16 12:46:54;;;;;;;4.73;2.77;;;;;;;9.23;57.46;97129.59;4922866;29;21189;-74
2021/04/16 12:49:26;;;;;;;7.03;2.40;;;;;;;9.30;57.67;97115.38;4919537;28;20466;-75
2021/04/16 12:51:54;;;;;;;4.40;2.30;;;;;;;9.46;56.93;97121.53;4922889;29;20554;-75
2021/04/16 12:54:21;;;;;;;2.20;1.67;;;;;;;9.67;56.65;97125.66;4916191;29;20472;-75
2021/04/16 12:56:48;;;;;;;2.80;2.00;;;;;;;9.48;56.03;97122.31;4897922;29;20934;-74
2021/04/16 12:59:18;;;;;;;5.67;2.70;;;;;;;9.43;55.98;97126.03;4916455;28;20483;-75
2021/04/16 13:01:47;;;;;;;26.33;13.23;;;;;;;9.41;56.38;97120.91;4924817;29;20477;-75
2021/04/16 13:04:16;;;;;;;15.47;8.03;;;;;;;9.43;56.51;97126.03;4927497;28;20823;-73
2021/04/16 13:06:46;;;;;;;5.93;2.67;;;;;;;9.44;56.04;97123.34;4926710;29;20498;-74
2021/04/16 13:09:16;;;;;;;4.37;2.60;;;;;;;9.33;56.26;97117.00;4918673;28;20478;-74
2021/04/16 13:11:43;;;;;;;12.67;2.60;;;;;;;9.33;56.28;97128.25;4932078;28;20432;-75
2021/04/16 13:14:10;;;;;;;6.00;1.97;;;;;;;9.39;56.44;97127.94;4922552;29;20532;-74
2021/04/16 13:16:38;;;;;;;5.20;1.93;;;;;;;9.46;55.74;97126.75;4921924;29;20441;-75
2021/04/16 13:19:09;;;;;;;4.03;1.67;;;;;;;9.19;54.72;97111.63;4925939;29;20492;-75
2021/04/16 13:21:39;;;;;;;2.70;1.47;;;;;;;9.11;55.77;97114.63;4928273;29;20976;-72
2021/04/16 13:24:11;;;;;;;9.20;2.23;;;;;;;9.16;55.92;97112.63;4920265;29;20973;-75
2021/04/16 13:26:39;;;;;;;3.53;1.57;;;;;;;9.32;55.37;97113.59;4934000;29;20922;-74
2021/04/16 13:29:06;;;;;;;18.93;1.90;;;;;;;9.35;55.16;97108.22;4911553;29;20475;-75
2021/04/16 13:31:36;;;;;;;2.20;1.70;;;;;;;9.32;54.86;97092.81;4920195;29;20903;-74
2021/04/16 13:34:04;;;;;;;2.70;1.23;;;;;;;9.56;54.88;97101.97;4926316;28;20455;-74
2021/04/16 13:36:33;;;;;;;9.53;1.80;;;;;;;9.63;54.72;97092.94;4926944;29;20786;-75
2021/04/16 13:39:01;;;;;;;2.27;2.00;;;;;;;9.79;54.29;97096.44;4925732;28;20942;-75
2021/04/16 13:41:28;;;;;;;1.90;1.60;;;;;;;9.70;54.13;97099.53;4919089;29;20941;-75
2021/04/16 13:43:58;;;;;;;5.70;2.10;;;;;;;9.75;54.52;97094.94;4925956;28;20466;-75
2021/04/16 13:46:33;;;;;;;2.23;1.43;;;;;;;9.63;54.90;97098.16;4929526;29;20914;-74
2021/04/16 13:49:03;;;;;;;1.83;1.60;;;;;;;9.73;55.38;97093.34;4923748;28;20865;-75
2021/04/16 13:51:32;;;;;;;515.43;30.50;;;;;;;9.79;55.50;97087.78;4926314;29;20447;-76
2021/04/16 13:53:59;;;;;;;150.47;16.23;;;;;;;9.78;55.67;97086.97;4923631;28;20507;-76
2021/04/16 13:56:26;;;;;;;14.63;3.50;;;;;;;9.87;55.34;97093.47;4919868;29;20882;-75
2021/04/16 13:58:53;;;;;;;3.20;1.70;;;;;;;9.71;55.19;97088.19;4922809;28;20471;-74
2021/04/16 14:01:21;;;;;;;2.30;1.30;;;;;;;9.64;55.61;97083.38;4923862;29;20482;-74
2021/04/16 14:03:51;;;;;;;3.93;1.93;;;;;;;9.55;55.13;97076.91;4925371;28;21013;-74
2021/04/16 14:06:22;;;;;;;4.57;2.03;;;;;;;9.54;55.66;97083.03;4924552;29;20823;-74
2021/04/16 14:08:52;;;;;;;4.53;1.63;;;;;;;9.41;56.23;97075.91;4928949;29;20534;-75
2021/04/16 14:11:20;;;;;;;3.13;1.90;;;;;;;9.39;55.87;97073.41;4914299;29;20454;-73